Time;durP1;ratioP1;P1;durP2;ratioP2;P2;SDS_P1;SDS_P2;PMS_P1;PMS_P2;Temp;Humidity;BMP_temperature;BMP_pressure;BME280_temperature;BME280_humidity;BME280_pressure;Samples;Min_cycle;Max_cycle;Signal;HPM_P1;HPM_P2
2022/05/20 00:01:25;;;;;;;3.78;1.45;;;11.10;99.90;;;;;;4988735;28;20077;-72
2022/05/20 00:03:52;;;;;;;5.07;1.52;;;11.20;99.90;;;;;;4989702;28;20053;-72
2022/05/20 00:06:20;;;;;;;6.53;2.33;;;11.30;99.90;;;;;;4988794;28;20678;-72
2022/05/20 00:08:48;;;;;;;9.73;1.23;;;11.30;99.90;;;;;;4988116;28;20391;-72
2022/05/20 00:11:16;;;;;;;6.15;1.40;;;11.30;99.90;;;;;;4988129;28;20046;-75
2022/05/20 00:13:45;;;;;;;4.78;1.58;;;11.40;99.90;;;;;;4988367;28;20026;-72
2022/05/20 00:16:13;;;;;;;4.82;2.10;;;11.40;99.90;;;;;;4990891;28;20022;-76
2022/05/20 00:18:42;;;;;;;6.57;1.45;;;11.50;99.90;;;;;;4995371;28;20484;-76
2022/05/20 00:21:10;;;;;;;5.50;1.67;;;11.50;99.90;;;;;;4996971;28;20019;-72
2022/05/20 00:23:38;;;;;;;4.40;1.40;;;11.60;99.90;;;;;;4984907;28;20023;-72
2022/05/20 00:26:06;;;;;;;5.18;1.08;;;11.60;99.90;;;;;;4990369;28;20058;-73
2022/05/20 00:28:34;;;;;;;3.85;1.77;;;11.80;99.90;;;;;;4988629;28;20030;-72
2022/05/20 00:31:08;;;;;;;6.47;1.50;;;11.90;99.90;;;;;;4988406;28;20680;-74
2022/05/20 00:33:40;;;;;;;3.83;1.50;;;11.90;99.90;;;;;;4988687;28;20019;-72
2022/05/20 00:36:08;;;;;;;6.57;1.45;;;11.90;99.90;;;;;;4990962;28;20383;-74
2022/05/20 00:38:36;;;;;;;4.25;1.70;;;11.90;99.90;;;;;;4988737;28;20043;-73
2022/05/20 00:41:04;;;;;;;13.23;1.40;;;11.90;99.90;;;;;;4991698;28;20034;-73
2022/05/20 00:43:42;;;;;;;4.95;1.88;;;11.90;99.90;;;;;;4993336;28;20101;-73
2022/05/20 00:46:16;;;;;;;6.47;1.48;;;11.90;99.90;;;;;;4992924;28;20088;-72
2022/05/20 00:49:00;;;;;;;4.07;1.55;;;11.90;99.90;;;;;;4993664;28;20153;-72
2022/05/20 00:51:39;;;;;;;5.72;1.42;;;11.80;99.90;;;;;;4991684;28;20065;-72
2022/05/20 00:54:15;;;;;;;7.45;1.48;;;11.80;99.90;;;;;;4990273;28;20097;-73
2022/05/20 00:56:54;;;;;;;2.50;1.33;;;11.80;99.90;;;;;;4991216;28;20027;-73
2022/05/20 00:59:28;;;;;;;3.50;1.42;;;11.80;99.90;;;;;;4991279;28;20141;-73
2022/05/20 01:02:00;;;;;;;7.07;1.73;;;11.80;99.90;;;;;;4992192;28;20026;-72
2022/05/20 01:04:30;;;;;;;6.15;1.30;;;11.80;99.90;;;;;;5000292;28;20025;-73
2022/05/20 01:06:59;;;;;;;6.88;1.50;;;11.80;99.90;;;;;;5006867;28;20134;-74
2022/05/20 01:09:27;;;;;;;3.05;1.30;;;11.80;99.90;;;;;;5010873;28;20032;-74
2022/05/20 01:11:55;;;;;;;5.75;1.52;;;11.80;99.90;;;;;;4995485;28;20736;-72
2022/05/20 01:14:25;;;;;;;4.68;1.38;;;11.80;99.90;;;;;;4985141;28;20085;-72
2022/05/20 01:16:54;;;;;;;5.78;1.88;;;11.80;99.90;;;;;;4985152;28;20014;-76
2022/05/20 01:19:30;;;;;;;5.18;1.73;;;11.80;99.90;;;;;;4986577;28;20382;-73
2022/05/20 01:21:58;;;;;;;3.58;1.38;;;11.80;99.90;;;;;;4987000;28;20052;-72
2022/05/20 01:24:26;;;;;;;2.75;1.08;;;11.80;99.90;;;;;;4986333;28;20407;-73
2022/05/20 01:26:54;;;;;;;6.38;1.50;;;11.80;99.90;;;;;;4986314;28;20074;-73
2022/05/20 01:29:22;;;;;;;6.03;1.10;;;11.80;99.90;;;;;;4986221;28;20025;-72
2022/05/20 01:31:50;;;;;;;3.45;1.27;;;11.80;99.90;;;;;;4985963;28;20038;-73
2022/05/20 01:34:20;;;;;;;2.95;1.40;;;11.80;99.90;;;;;;4984791;28;20026;-72
2022/05/20 01:36:48;;;;;;;4.28;1.60;;;11.80;99.90;;;;;;4985701;28;20487;-74
2022/05/20 01:39:17;;;;;;;5.78;1.67;;;11.80;99.90;;;;;;4985580;28;20031;-72
2022/05/20 01:42:01;;;;;;;5.10;1.90;;;11.80;99.90;;;;;;4986036;28;20113;-72
2022/05/20 01:44:48;;;;;;;9.07;2.05;;;11.80;99.90;;;;;;4986647;28;20027;-73
2022/05/20 01:47:31;;;;;;;2.75;1.20;;;11.80;99.90;;;;;;4982525;28;20019;-73
2022/05/20 01:50:03;;;;;;;3.75;1.85;;;11.90;99.90;;;;;;4991996;28;20495;-74
2022/05/20 01:52:54;;;;;;;3.78;1.70;;;11.90;99.90;;;;;;4984952;28;20042;-76
2022/05/20 01:55:36;;;;;;;5.38;2.13;;;11.90;99.90;;;;;;4987362;28;20023;-73
2022/05/20 01:58:14;;;;;;;5.03;2.10;;;11.90;99.90;;;;;;4987482;28;20026;-72
2022/05/20 02:00:42;;;;;;;5.95;1.92;;;12.00;99.90;;;;;;4981990;28;20550;-75
2022/05/20 02:03:09;;;;;;;6.57;1.58;;;12.00;99.90;;;;;;4976552;28;20077;-72
2022/05/20 02:05:53;;;;;;;8.43;2.13;;;12.00;99.90;;;;;;4977274;28;20027;-73
2022/05/20 02:08:36;;;;;;;5.55;1.45;;;12.00;99.90;;;;;;4984780;28;20021;-75
2022/05/20 02:11:14;;;;;;;3.13;1.90;;;12.10;99.90;;;;;;4986644;28;20125;-73
2022/05/20 02:13:47;;;;;;;3.63;1.75;;;12.10;99.90;;;;;;4988389;28;20120;-73
2022/05/20 02:16:22;;;;;;;10.35;2.45;;;12.20;99.90;;;;;;4986442;28;20022;-74
2022/05/20 02:18:55;;;;;;;3.40;1.83;;;12.20;99.90;;;;;;4986526;28;20018;-76
2022/05/20 02:21:26;;;;;;;9.35;2.85;;;12.30;99.90;;;;;;4986983;28;20042;-76
2022/05/20 02:23:58;;;;;;;4.78;1.92;;;12.40;99.90;;;;;;4988797;28;20019;-73
2022/05/20 02:26:29;;;;;;;7.25;2.10;;;12.30;99.90;;;;;;4992780;28;20049;-75
2022/05/20 02:29:09;;;;;;;10.23;2.58;;;12.30;99.90;;;;;;4979919;28;20030;-73
2022/05/20 02:32:11;;;;;;;6.50;2.78;;;12.40;99.90;;;;;;4986611;28;20030;-73
2022/05/20 02:34:38;;;;;;;8.60;2.53;;;12.30;99.90;;;;;;4990992;28;20038;-74
2022/05/20 02:37:27;;;;;;;8.25;2.72;;;12.30;99.90;;;;;;4993986;28;20049;-73
2022/05/20 02:39:56;;;;;;;6.70;3.05;;;12.30;99.90;;;;;;4984759;28;20052;-75
2022/05/20 02:42:23;;;;;;;6.88;2.30;;;12.40;99.90;;;;;;4989327;28;20459;-76
2022/05/20 02:44:51;;;;;;;3.17;1.30;;;12.40;99.90;;;;;;4983093;28;20027;-74
2022/05/20 02:47:20;;;;;;;4.40;2.03;;;12.40;99.90;;;;;;4983687;28;20476;-73
2022/05/20 02:49:47;;;;;;;4.40;1.75;;;12.40;99.90;;;;;;4986914;28;20044;-72
2022/05/20 02:52:15;;;;;;;3.55;1.48;;;12.40;99.90;;;;;;4978847;28;20065;-75
2022/05/20 02:54:42;;;;;;;6.18;1.73;;;12.40;99.90;;;;;;4975870;28;20473;-74
2022/05/20 02:57:09;;;;;;;4.88;2.03;;;12.50;99.90;;;;;;4975996;28;20027;-73
2022/05/20 03:05:07;;;;;;;4.97;1.73;;;12.60;99.90;;;;;;4975850;28;20109;-75
2022/05/20 03:07:34;;;;;;;7.32;2.08;;;12.70;99.90;;;;;;4985611;28;20276;-73
2022/05/20 03:10:02;;;;;;;2.03;1.15;;;12.70;99.90;;;;;;4984569;28;20382;-75
2022/05/20 03:12:29;;;;;;;6.03;2.20;;;12.70;99.90;;;;;;4978402;28;20097;-74
2022/05/20 03:14:57;;;;;;;5.25;1.98;;;12.70;99.90;;;;;;4983447;28;20039;-72
2022/05/20 03:17:24;;;;;;;6.63;2.42;;;12.80;99.90;;;;;;4985558;28;20023;-73
2022/05/20 03:19:51;;;;;;;5.68;2.42;;;12.80;99.90;;;;;;4990313;28;20014;-72
2022/05/20 03:22:19;;;;;;;7.40;2.65;;;12.90;99.90;;;;;;4986312;28;20475;-75
2022/05/20 03:24:46;;;;;;;5.88;1.95;;;13.00;99.90;;;;;;4987997;28;20023;-75
2022/05/20 03:27:16;;;;;;;9.60;2.60;;;13.00;99.90;;;;;;4986772;28;20022;-73
2022/05/20 03:29:45;;;;;;;6.03;2.13;;;13.00;99.90;;;;;;5008767;28;20032;-74
2022/05/20 03:32:13;;;;;;;8.07;2.15;;;13.10;99.90;;;;;;4985932;28;20034;-72
2022/05/20 03:34:41;;;;;;;5.95;2.33;;;13.10;99.90;;;;;;4976877;28;20125;-75
2022/05/20 03:37:09;;;;;;;9.20;2.08;;;13.10;99.90;;;;;;4988883;28;20032;-72
2022/05/20 03:39:36;;;;;;;6.35;2.10;;;13.10;99.90;;;;;;4989185;28;20084;-72
2022/05/20 03:42:04;;;;;;;5.55;2.13;;;13.10;99.90;;;;;;4987773;28;20566;-72
2022/05/20 03:44:32;;;;;;;4.00;1.70;;;13.10;99.90;;;;;;4978961;28;20027;-76
2022/05/20 03:47:01;;;;;;;6.28;2.53;;;13.20;99.90;;;;;;4985298;28;20364;-72
2022/05/20 03:49:29;;;;;;;5.60;1.88;;;13.20;99.90;;;;;;4985272;28;20034;-71
2022/05/20 03:51:58;;;;;;;5.03;1.75;;;13.20;99.90;;;;;;4984692;28;20479;-72
2022/05/20 03:54:29;;;;;;;4.57;2.17;;;13.30;99.90;;;;;;4978084;28;20066;-72
2022/05/20 03:56:57;;;;;;;5.40;2.00;;;13.20;99.90;;;;;;4980213;28;20080;-72
2022/05/20 03:59:24;;;;;;;6.78;2.20;;;13.30;99.90;;;;;;4980825;28;20625;-72
2022/05/20 04:01:57;;;;;;;3.95;1.88;;;13.30;99.90;;;;;;4980730;28;20073;-75
2022/05/20 04:04:36;;;;;;;8.55;1.60;;;13.20;99.90;;;;;;4986239;28;20037;-73
2022/05/20 04:07:09;;;;;;;6.05;1.58;;;13.20;99.90;;;;;;4985620;28;20045;-75
2022/05/20 04:09:37;;;;;;;3.60;1.63;;;13.10;99.90;;;;;;4984170;28;20030;-74
2022/05/20 04:12:07;;;;;;;4.57;1.70;;;13.10;99.90;;;;;;4986462;28;20043;-73
2022/05/20 04:14:35;;;;;;;6.40;2.17;;;13.10;99.90;;;;;;4982795;28;20092;-71
2022/05/20 04:17:04;;;;;;;6.00;1.98;;;13.10;99.90;;;;;;4976946;28;20452;-73
2022/05/20 04:19:33;;;;;;;5.85;1.90;;;13.10;99.90;;;;;;4988432;28;20020;-74
2022/05/20 04:22:09;;;;;;;4.30;1.30;;;13.10;99.90;;;;;;4988803;28;20018;-72
2022/05/20 04:24:37;;;;;;;4.60;1.42;;;13.10;99.90;;;;;;4987356;28;20134;-72
2022/05/20 04:27:05;;;;;;;3.28;1.48;;;13.20;99.90;;;;;;4983787;28;20046;-72
2022/05/20 04:29:33;;;;;;;5.05;1.65;;;13.30;99.90;;;;;;4981572;28;20045;-72
2022/05/20 04:32:01;;;;;;;3.38;1.35;;;13.30;99.90;;;;;;4983183;28;20019;-73
2022/05/20 04:34:28;;;;;;;3.00;1.63;;;13.30;99.90;;;;;;4984222;28;20035;-74
2022/05/20 04:36:55;;;;;;;4.07;1.23;;;13.30;99.90;;;;;;4982673;28;20464;-72
2022/05/20 04:39:23;;;;;;;8.73;1.52;;;13.30;99.90;;;;;;4982893;28;20384;-72
2022/05/20 04:47:27;;;;;;;8.48;2.00;;;13.30;99.90;;;;;;4986062;28;20038;-72
2022/05/20 04:49:55;;;;;;;4.50;1.38;;;13.30;99.90;;;;;;4981901;28;20043;-73
2022/05/20 04:52:23;;;;;;;4.15;1.42;;;13.30;99.90;;;;;;4986977;28;20031;-72
2022/05/20 04:54:51;;;;;;;2.40;1.80;;;13.40;99.90;;;;;;4985894;28;20538;-72
2022/05/20 04:57:29;;;;;;;6.80;1.70;;;13.40;99.90;;;;;;4987147;28;20133;-72
2022/05/20 05:00:08;;;;;;;7.88;1.75;;;13.40;99.90;;;;;;4985984;28;20376;-72
2022/05/20 05:02:37;;;;;;;5.28;1.70;;;13.40;99.90;;;;;;4985749;28;20118;-72
2022/05/20 05:05:07;;;;;;;5.20;1.45;;;13.40;99.90;;;;;;4986343;28;20077;-72
2022/05/20 05:07:38;;;;;;;5.55;1.85;;;13.50;99.90;;;;;;4985544;28;20373;-73
2022/05/20 05:10:06;;;;;;;4.57;1.80;;;13.40;99.90;;;;;;4985951;28;20019;-71
2022/05/20 05:12:33;;;;;;;2.90;1.42;;;13.50;99.90;;;;;;4985236;28;20039;-75
2022/05/20 05:15:01;;;;;;;5.82;1.60;;;13.50;99.90;;;;;;4985261;28;20019;-72
2022/05/20 05:20:18;;;;;;;5.60;1.83;;;13.50;99.90;;;;;;4984092;28;20026;-74
2022/05/20 05:22:45;;;;;;;7.70;1.60;;;13.60;99.90;;;;;;4985370;28;20113;-72
2022/05/20 05:25:14;;;;;;;5.82;1.80;;;13.60;99.90;;;;;;4987303;28;20383;-72
2022/05/20 05:27:42;;;;;;;7.60;1.92;;;13.60;99.90;;;;;;4986485;28;20486;-72
2022/05/20 05:30:12;;;;;;;3.10;1.80;;;13.60;99.90;;;;;;4984922;28;20026;-72
2022/05/20 05:32:41;;;;;;;6.38;1.67;;;13.50;99.90;;;;;;4984468;28;20480;-71
2022/05/20 05:35:12;;;;;;;3.30;1.65;;;13.50;99.90;;;;;;4984014;28;20516;-75
2022/05/20 05:37:41;;;;;;;9.95;2.08;;;13.50;99.90;;;;;;4983153;28;20026;-72
2022/05/20 05:40:11;;;;;;;5.72;2.13;;;13.50;99.90;;;;;;4984350;28;20050;-71
2022/05/20 05:42:41;;;;;;;5.57;1.77;;;13.50;99.90;;;;;;4981529;28;20030;-72
2022/05/20 05:45:09;;;;;;;10.30;1.73;;;13.50;99.90;;;;;;4982933;28;20034;-73
2022/05/20 05:47:37;;;;;;;4.53;1.50;;;13.50;99.90;;;;;;4986213;28;20506;-71
2022/05/20 05:50:05;;;;;;;6.32;1.38;;;13.50;99.90;;;;;;4986598;28;20458;-72
2022/05/20 05:52:32;;;;;;;3.85;1.50;;;13.50;99.90;;;;;;4985922;28;20058;-71
2022/05/20 05:55:01;;;;;;;4.78;1.25;;;13.50;99.90;;;;;;4984519;28;20480;-74
2022/05/20 05:57:29;;;;;;;3.83;1.25;;;13.40;99.90;;;;;;4986169;28;20509;-72
2022/05/20 05:59:57;;;;;;;13.88;1.88;;;13.40;99.90;;;;;;4985521;28;20097;-73
2022/05/20 06:02:24;;;;;;;4.30;1.92;;;13.40;99.90;;;;;;4986564;28;20053;-70
2022/05/20 06:04:52;;;;;;;2.83;1.48;;;13.40;99.90;;;;;;4988277;28;20027;-71
2022/05/20 06:07:19;;;;;;;5.07;1.73;;;13.40;99.90;;;;;;4995792;28;20033;-72
2022/05/20 06:09:47;;;;;;;4.38;1.98;;;13.40;99.90;;;;;;4995603;28;20030;-70
2022/05/20 06:12:14;;;;;;;7.50;1.70;;;13.40;99.90;;;;;;4986807;28;20487;-73
2022/05/20 06:14:42;;;;;;;6.18;2.28;;;13.40;99.90;;;;;;4985216;28;20065;-74
2022/05/20 06:17:13;;;;;;;12.55;1.77;;;13.40;99.90;;;;;;4986447;28;20014;-74
2022/05/20 06:19:43;;;;;;;6.13;1.73;;;13.40;99.90;;;;;;4985409;28;20031;-72
2022/05/20 06:22:10;;;;;;;5.40;1.85;;;13.40;99.90;;;;;;4984254;28;20033;-73
2022/05/20 06:24:38;;;;;;;3.30;1.10;;;13.40;99.90;;;;;;4985604;28;20089;-74
2022/05/20 06:27:06;;;;;;;7.05;1.83;;;13.40;99.90;;;;;;4986051;28;20018;-74
2022/05/20 06:29:33;;;;;;;3.08;1.50;;;13.30;99.90;;;;;;4984146;28;20483;-74
2022/05/20 06:32:00;;;;;;;4.78;1.50;;;13.30;99.90;;;;;;4984982;28;20125;-74
2022/05/20 06:39:48;;;;;;;6.97;1.90;;;13.30;99.90;;;;;;4983422;28;20015;-72
2022/05/20 06:40:11;;;;;;;5.78;1.38;;;13.30;99.90;;;;;;4978580;28;20459;-74
2022/05/20 06:42:38;;;;;;;4.28;1.90;;;13.30;99.90;;;;;;4975501;28;20023;-75
2022/05/20 06:45:06;;;;;;;2.67;1.33;;;13.30;99.90;;;;;;4973513;28;20019;-74
2022/05/20 06:47:34;;;;;;;6.72;1.77;;;13.40;99.90;;;;;;4973640;28;20088;-74
2022/05/20 06:50:01;;;;;;;4.93;1.58;;;13.30;99.90;;;;;;4973216;28;20093;-74
2022/05/20 06:52:29;;;;;;;8.60;1.40;;;13.30;99.90;;;;;;4973523;28;20031;-75
2022/05/20 06:54:56;;;;;;;4.13;1.65;;;13.30;99.90;;;;;;4969731;28;20039;-75
2022/05/20 06:57:27;;;;;;;4.85;1.77;;;13.40;99.90;;;;;;4973890;28;20031;-75
2022/05/20 06:59:55;;;;;;;8.60;2.15;;;13.30;99.90;;;;;;4973423;28;20494;-71
2022/05/20 07:02:22;;;;;;;3.63;1.50;;;13.30;99.90;;;;;;4973324;28;20038;-75
2022/05/20 07:04:49;;;;;;;5.75;1.63;;;13.30;99.90;;;;;;4973356;28;20033;-72
2022/05/20 07:07:17;;;;;;;4.38;1.40;;;13.30;99.90;;;;;;4972653;28;20026;-75
2022/05/20 07:09:44;;;;;;;9.43;1.67;;;13.30;99.90;;;;;;4973626;28;20119;-73
2022/05/20 07:12:11;;;;;;;3.85;1.23;;;13.20;99.90;;;;;;4973340;28;20027;-72
2022/05/20 07:14:39;;;;;;;4.25;1.77;;;13.20;99.90;;;;;;4974861;28;20031;-71
2022/05/20 07:17:06;;;;;;;6.85;1.63;;;13.20;99.90;;;;;;4975151;28;20051;-73
2022/05/20 07:19:33;;;;;;;6.68;1.50;;;13.20;99.90;;;;;;4975221;28;20436;-72
2022/05/20 07:22:01;;;;;;;7.50;1.58;;;13.20;99.90;;;;;;4975039;28;20073;-72
2022/05/20 07:24:28;;;;;;;6.72;1.45;;;13.10;99.90;;;;;;4974973;28;20034;-75
2022/05/20 07:26:55;;;;;;;8.10;2.08;;;13.10;99.90;;;;;;4975000;28;20026;-71
2022/05/20 07:29:23;;;;;;;8.50;2.22;;;13.10;99.90;;;;;;4974963;28;20113;-74
2022/05/20 07:31:50;;;;;;;8.63;2.42;;;13.10;99.90;;;;;;4974994;28;20392;-74
2022/05/20 07:34:17;;;;;;;7.95;1.80;;;13.10;99.90;;;;;;4975024;28;20023;-74
2022/05/20 07:36:45;;;;;;;10.75;2.15;;;13.10;99.90;;;;;;4974718;28;20049;-74
2022/05/20 07:39:12;;;;;;;8.38;2.88;;;13.10;99.90;;;;;;4974454;28;20031;-71
2022/05/20 07:41:39;;;;;;;5.10;2.13;;;13.10;99.90;;;;;;4973787;28;20109;-73
2022/05/20 07:44:07;;;;;;;7.22;2.25;;;13.00;99.90;;;;;;4979759;28;20046;-74
2022/05/20 07:46:34;;;;;;;11.15;2.10;;;13.00;99.90;;;;;;4983104;28;20037;-72
2022/05/20 07:49:02;;;;;;;5.75;2.05;;;13.10;99.90;;;;;;4979510;28;20463;-73
2022/05/20 07:51:32;;;;;;;5.57;2.10;;;13.10;99.90;;;;;;4992689;28;20054;-72
2022/05/20 07:54:10;;;;;;;5.97;2.65;;;13.00;99.90;;;;;;4993240;28;20101;-74
2022/05/20 07:56:49;;;;;;;7.65;1.85;;;13.10;99.90;;;;;;4990470;28;20022;-74
2022/05/20 07:59:27;;;;;;;7.35;2.30;;;13.00;99.90;;;;;;4974040;28;20097;-71
2022/05/20 08:01:55;;;;;;;9.52;2.15;;;13.10;99.90;;;;;;4983358;28;20018;-73
2022/05/20 08:07:18;;;;;;;5.45;2.13;;;13.10;99.90;;;;;;4993212;28;20391;-73
2022/05/20 08:09:45;;;;;;;5.65;2.08;;;13.10;99.90;;;;;;4990394;28;20025;-74
2022/05/20 08:12:13;;;;;;;12.43;2.85;;;13.10;99.90;;;;;;4992150;28;20077;-73
2022/05/20 08:14:41;;;;;;;10.88;3.28;;;13.10;99.90;;;;;;4991395;28;20023;-71
2022/05/20 08:17:08;;;;;;;8.35;3.60;;;13.10;99.90;;;;;;4992607;28;20026;-73
2022/05/20 08:19:37;;;;;;;12.48;2.50;;;13.20;99.90;;;;;;4995228;28;20041;-73
2022/05/20 08:22:06;;;;;;;11.95;3.60;;;13.10;99.90;;;;;;4996833;28;20021;-73
2022/05/20 08:24:34;;;;;;;14.65;3.33;;;13.10;99.90;;;;;;4997042;28;20295;-74
2022/05/20 08:27:01;;;;;;;11.35;3.10;;;13.10;99.90;;;;;;4996622;28;20018;-75
2022/05/20 08:29:31;;;;;;;6.53;3.28;;;13.20;99.90;;;;;;4996024;28;20076;-72
2022/05/20 08:31:59;;;;;;;11.65;3.33;;;13.10;99.90;;;;;;4996493;28;20014;-73
2022/05/20 08:34:26;;;;;;;10.45;2.40;;;13.10;99.90;;;;;;4996773;28;20379;-72
2022/05/20 08:36:54;;;;;;;13.25;3.72;;;13.10;99.90;;;;;;4996590;28;20073;-72
2022/05/20 08:39:22;;;;;;;13.93;3.45;;;13.10;99.90;;;;;;4996597;28;20113;-73
2022/05/20 08:41:53;;;;;;;9.82;3.38;;;13.10;99.90;;;;;;4996283;28;20073;-75
2022/05/20 08:44:24;;;;;;;9.93;2.70;;;13.10;99.90;;;;;;4984884;28;20085;-75
2022/05/20 08:47:06;;;;;;;8.35;3.95;;;13.10;99.90;;;;;;4976866;28;20050;-73
2022/05/20 08:49:37;;;;;;;13.35;3.20;;;13.10;99.90;;;;;;4976519;28;20019;-72
2022/05/20 08:52:05;;;;;;;6.45;2.88;;;13.10;99.90;;;;;;4976772;28;20394;-73
2022/05/20 08:54:33;;;;;;;10.35;3.08;;;13.10;99.90;;;;;;4991504;28;20027;-75
2022/05/20 08:57:19;;;;;;;7.90;2.80;;;13.00;99.90;;;;;;4979137;28;20029;-72
2022/05/20 08:59:46;;;;;;;9.33;2.80;;;13.00;99.90;;;;;;4976603;28;20030;-75
2022/05/20 09:02:14;;;;;;;11.38;3.53;;;13.00;99.90;;;;;;4978802;28;20653;-75
2022/05/20 09:04:43;;;;;;;9.57;3.00;;;13.00;99.90;;;;;;4976292;28;20034;-75
2022/05/20 09:07:14;;;;;;;9.55;3.17;;;13.00;99.90;;;;;;4976344;28;20023;-74
2022/05/20 09:09:48;;;;;;;12.55;2.75;;;12.90;99.90;;;;;;4976141;28;20027;-72
2022/05/20 09:12:36;;;;;;;11.32;2.65;;;12.90;99.90;;;;;;4975903;28;20039;-75
2022/05/20 09:18:32;;;;;;;9.20;3.20;;;12.90;99.90;;;;;;4975971;28;20399;-75
2022/05/20 09:21:00;;;;;;;9.45;2.92;;;12.80;99.90;;;;;;4975828;28;20150;-76
2022/05/20 09:23:28;;;;;;;7.60;2.65;;;12.80;99.90;;;;;;4975625;28;20031;-73
2022/05/20 09:26:10;;;;;;;6.78;2.90;;;12.80;99.90;;;;;;4975795;28;20034;-73
2022/05/20 09:28:38;;;;;;;8.25;2.67;;;12.70;99.90;;;;;;4975612;28;20015;-74
2022/05/20 09:31:27;;;;;;;7.55;2.80;;;12.70;99.90;;;;;;4974155;28;20023;-75
2022/05/20 09:34:13;;;;;;;6.40;2.05;;;12.70;99.90;;;;;;4975601;28;20037;-74
2022/05/20 09:36:47;;;;;;;8.07;3.15;;;12.70;99.90;;;;;;4975617;28;20101;-73
2022/05/20 09:39:21;;;;;;;8.23;2.70;;;12.70;99.90;;;;;;4990319;28;20387;-74
2022/05/20 09:41:55;;;;;;;7.32;2.60;;;12.70;99.90;;;;;;4975437;28;20050;-72
2022/05/20 09:44:32;;;;;;;7.18;3.20;;;12.70;99.90;;;;;;4975486;28;20125;-71
2022/05/20 09:47:43;;;;;;;8.77;2.55;;;12.70;99.90;;;;;;4975103;28;20029;-72
2022/05/20 09:50:33;;;;;;;6.95;2.90;;;12.70;99.90;;;;;;4974739;28;20098;-72
2022/05/20 09:53:10;;;;;;;11.02;3.47;;;12.70;99.90;;;;;;4975101;28;20361;-74
2022/05/20 09:55:43;;;;;;;9.20;3.78;;;12.70;99.90;;;;;;4975180;28;20038;-74
2022/05/20 09:58:17;;;;;;;10.23;2.78;;;12.70;99.90;;;;;;4975283;28;20022;-75
2022/05/20 10:01:10;;;;;;;4.05;2.60;;;12.70;99.90;;;;;;4975069;28;20379;-74
2022/05/20 10:03:50;;;;;;;10.15;3.05;;;12.70;99.90;;;;;;4974678;28;20026;-73
2022/05/20 10:06:36;;;;;;;7.40;2.53;;;12.70;99.90;;;;;;4974372;28;20109;-74
2022/05/20 10:09:09;;;;;;;;;;;12.60;99.90;;;;;;4978228;28;20025;-74
2022/05/20 10:12:00;;;;;;;7.22;2.20;;;12.70;99.90;;;;;;4989623;28;19981;-72
2022/05/20 10:14:38;;;;;;;6.15;2.42;;;12.70;99.90;;;;;;4983586;28;20014;-72
2022/05/20 10:17:30;;;;;;;9.80;2.85;;;12.70;99.90;;;;;;4985822;28;20038;-72
2022/05/20 10:20:11;;;;;;;5.18;2.38;;;12.60;99.90;;;;;;4985790;28;20031;-75
2022/05/20 10:22:56;;;;;;;9.68;3.03;;;12.60;99.90;;;;;;4985122;28;20015;-74
2022/05/20 10:25:56;;;;;;;7.65;4.13;;;12.60;99.90;;;;;;4974974;28;20030;-73
2022/05/20 10:34:43;;;;;;;7.35;3.00;;;12.60;99.90;;;;;;4974818;28;20069;-74
2022/05/20 10:37:51;;;;;;;9.23;3.40;;;12.60;99.90;;;;;;4974416;28;20388;-75
2022/05/20 10:40:39;;;;;;;8.23;3.15;;;12.60;99.90;;;;;;4973925;28;20113;-72
2022/05/20 10:43:24;;;;;;;10.82;3.47;;;12.60;99.90;;;;;;4974351;28;20384;-73
2022/05/20 10:49:17;;;;;;;6.20;3.27;;;12.60;99.90;;;;;;4974731;28;20034;-73
2022/05/20 10:51:59;;;;;;;4.40;3.13;;;12.50;99.90;;;;;;4974082;28;20038;-71
2022/05/20 10:54:40;;;;;;;11.82;4.13;;;12.50;99.90;;;;;;4974161;28;20034;-74
2022/05/20 10:57:26;;;;;;;6.80;4.20;;;12.60;99.90;;;;;;4989172;28;20421;-73
2022/05/20 11:00:03;;;;;;;14.77;4.65;;;12.60;99.90;;;;;;4973788;28;20023;-75
2022/05/20 11:03:01;;;;;;;6.55;3.55;;;12.50;99.90;;;;;;4973997;28;20390;-75
2022/05/20 11:05:40;;;;;;;6.38;2.65;;;12.50;99.90;;;;;;4973809;28;20555;-75
2022/05/20 11:08:08;;;;;;;8.88;2.60;;;12.50;99.90;;;;;;4974009;28;20023;-74
2022/05/20 11:10:57;;;;;;;9.75;3.45;;;12.40;99.90;;;;;;4973778;28;20109;-72
2022/05/20 11:14:00;;;;;;;12.73;2.75;;;12.40;99.90;;;;;;4974245;28;20039;-74
2022/05/20 11:17:00;;;;;;;4.05;2.10;;;12.40;99.90;;;;;;4973987;28;20058;-75
2022/05/20 11:19:27;;;;;;;8.35;2.97;;;12.40;99.90;;;;;;4961663;28;20043;-75
2022/05/20 11:22:20;;;;;;;8.73;2.70;;;12.40;99.90;;;;;;4974361;28;20014;-74
2022/05/20 11:25:12;;;;;;;4.03;2.40;;;12.40;99.90;;;;;;4974696;28;20027;-75
2022/05/20 11:28:01;;;;;;;8.38;2.70;;;12.40;99.90;;;;;;4975024;28;20031;-72
2022/05/20 11:30:35;;;;;;;9.27;2.53;;;12.40;99.90;;;;;;4974934;28;20027;-73
2022/05/20 11:33:25;;;;;;;8.90;1.85;;;12.30;99.90;;;;;;4974373;28;20077;-74
2022/05/20 11:36:19;;;;;;;5.43;2.40;;;12.30;99.90;;;;;;4974752;28;20385;-75
2022/05/20 11:39:26;;;;;;;9.65;2.20;;;12.30;99.90;;;;;;4974466;28;20018;-74
2022/05/20 11:42:01;;;;;;;7.75;2.72;;;12.30;99.90;;;;;;4974054;28;20027;-75
2022/05/20 11:44:50;;;;;;;4.97;2.38;;;12.30;99.90;;;;;;4987356;28;20019;-73
2022/05/20 11:47:27;;;;;;;4.82;2.03;;;12.30;99.90;;;;;;4973525;28;20468;-73
2022/05/20 11:50:00;;;;;;;7.50;2.50;;;12.30;99.90;;;;;;4973194;28;20050;-75
2022/05/20 11:52:31;;;;;;;7.07;3.00;;;12.30;99.90;;;;;;4973461;28;20496;-75
2022/05/20 11:55:22;;;;;;;7.93;2.83;;;12.30;99.90;;;;;;4973131;28;20117;-73
2022/05/20 11:58:03;;;;;;;9.68;3.05;;;12.30;99.90;;;;;;4973798;28;20031;-75
2022/05/20 12:00:35;;;;;;;10.13;3.58;;;12.30;99.90;;;;;;4973612;28;20015;-72
2022/05/20 12:03:07;;;;;;;10.90;2.95;;;12.30;99.90;;;;;;4973666;28;20038;-72
2022/05/20 12:05:41;;;;;;;5.43;1.95;;;12.20;99.90;;;;;;4973678;28;20496;-72
2022/05/20 12:08:29;;;;;;;10.18;3.33;;;12.20;99.90;;;;;;4973792;28;20050;-73
2022/05/20 12:10:57;;;;;;;5.07;2.78;;;12.20;99.90;;;;;;4972707;28;20031;-72
2022/05/20 12:13:28;;;;;;;6.22;2.55;;;12.20;99.90;;;;;;4973377;28;20129;-72
2022/05/20 12:16:15;;;;;;;5.78;1.92;;;12.10;99.90;;;;;;4974105;28;20019;-71
2022/05/20 12:24:53;;;;;;;7.22;2.60;;;12.10;99.90;;;;;;4990674;28;20434;-73
2022/05/20 12:27:26;;;;;;;6.35;2.03;;;12.20;99.90;;;;;;4989240;28;20481;-72
2022/05/20 12:30:06;;;;;;;6.63;2.30;;;12.10;99.90;;;;;;4982494;28;20030;-75
2022/05/20 12:32:36;;;;;;;10.38;2.50;;;12.10;99.90;;;;;;4984259;28;20535;-76
2022/05/20 12:35:16;;;;;;;7.50;2.70;;;12.20;99.90;;;;;;4984728;28;20022;-75
2022/05/20 12:37:44;;;;;;;6.97;2.17;;;12.10;99.90;;;;;;4982626;28;20089;-75
2022/05/20 12:40:27;;;;;;;4.47;2.55;;;12.10;99.90;;;;;;4983900;28;20018;-72
2022/05/20 12:43:10;;;;;;;6.65;3.28;;;12.20;99.90;;;;;;4982643;28;20023;-74
2022/05/20 12:45:54;;;;;;;4.75;2.88;;;12.30;99.90;;;;;;4984023;28;20023;-74
2022/05/20 12:48:30;;;;;;;3.08;2.35;;;12.20;99.90;;;;;;4991670;28;20057;-72
2022/05/20 12:51:05;;;;;;;7.38;3.20;;;12.20;99.90;;;;;;4993233;28;20045;-75
2022/05/20 12:53:35;;;;;;;5.38;2.80;;;12.20;99.90;;;;;;4991334;28;20034;-76
2022/05/20 12:56:03;;;;;;;8.95;3.00;;;12.20;99.90;;;;;;5000352;28;20033;-72
2022/05/20 12:58:34;;;;;;;4.05;2.05;;;12.20;99.90;;;;;;5013193;28;20033;-72
2022/05/20 13:01:07;;;;;;;13.25;3.38;;;12.10;99.90;;;;;;5013160;28;20025;-75
2022/05/20 13:03:46;;;;;;;13.80;3.03;;;12.10;99.90;;;;;;5012928;28;20038;-73
2022/05/20 13:06:21;;;;;;;5.03;2.55;;;12.10;99.90;;;;;;5015834;28;20022;-76
2022/05/20 13:09:07;;;;;;;6.97;3.00;;;12.10;99.90;;;;;;5016520;28;20030;-72
2022/05/20 13:11:51;;;;;;;5.63;2.65;;;12.10;99.90;;;;;;5016232;28;20453;-72
2022/05/20 13:14:22;;;;;;;3.50;2.70;;;12.10;99.90;;;;;;5016466;28;20479;-72
2022/05/20 13:16:58;;;;;;;7.10;3.10;;;12.10;99.90;;;;;;5016595;28;20033;-71
2022/05/20 13:19:51;;;;;;;6.40;3.03;;;12.00;99.90;;;;;;5016354;28;20452;-71
2022/05/20 13:22:25;;;;;;;11.48;2.83;;;12.00;99.90;;;;;;5016154;28;20030;-75
2022/05/20 13:25:05;;;;;;;9.52;3.13;;;12.00;99.90;;;;;;5016563;28;20093;-70
2022/05/20 13:27:33;;;;;;;5.13;2.15;;;11.90;99.90;;;;;;5016234;28;20022;-75
2022/05/20 13:30:21;;;;;;;10.93;2.92;;;11.90;99.90;;;;;;5016243;28;20380;-75
2022/05/20 13:32:48;;;;;;;4.38;2.40;;;11.90;99.90;;;;;;5015947;28;20092;-74
2022/05/20 13:35:16;;;;;;;4.70;2.08;;;11.90;99.90;;;;;;5016285;28;20053;-76
2022/05/20 13:37:49;;;;;;;7.53;2.38;;;11.90;99.90;;;;;;5016013;28;20034;-76
2022/05/20 13:40:17;;;;;;;8.23;3.10;;;11.90;99.90;;;;;;5015926;28;20021;-72
2022/05/20 13:42:54;;;;;;;6.40;2.22;;;11.90;99.90;;;;;;5016156;28;20084;-74
2022/05/20 13:49:13;;;;;;;4.30;2.10;;;11.90;99.90;;;;;;5016206;28;20025;-74
2022/05/20 13:51:11;;;;;;;3.90;2.33;;;11.80;99.90;;;;;;5015614;28;20474;-75
2022/05/20 13:53:41;;;;;;;6.75;2.50;;;11.90;99.90;;;;;;5015699;28;20554;-71
2022/05/20 13:56:13;;;;;;;3.75;2.15;;;11.80;99.90;;;;;;5015665;28;20036;-76
2022/05/20 13:58:43;;;;;;;4.38;2.60;;;11.80;99.90;;;;;;5015721;28;20101;-75